Decoded Metar for EPMO ( in ) (IATA:) | Meteo·Mobile Aviation Weather
aviador You're here:

EPMO Decoded Metar

in
Report Time2019-01-23 07:30:00
UTC Time2019-01-23 07:36:25
Flight Rules mvfr MVFR
Wind080° at 09 kt
W.Decomp.*RWY 08: 9.0 kt HW -0 kt LCW
W.Rank080° ranks 3
Current wind is above 080° avg. (7.1)
Visibility5000 m
Phenomena:Light Snow
Mist
Clouds:Overcast 028 Hf
Expected CloudBase > 800 ft AGL from Temp-Dew spread
Ceiling2,800 ft
Temp-6°C
Dew Point-8°C (86% RH)
AAT-12.1°C
QNH1009 hPa
Raw Report
METAR EPMO 230730Z 08009KT 5000 -SN BR OVC028 M06/M08 Q1009 =

Extra information for EPMO:More info

Social comments